Time;durP1;ratioP1;P1;durP2;ratioP2;P2;SDS_P1;SDS_P2;PMS_P1;PMS_P2;Temp;Humidity;BMP_temperature;BMP_pressure;BME280_temperature;BME280_humidity;BME280_pressure;Samples;Min_cycle;Max_cycle;Signal;HPM_P1;HPM_P2
2022/12/22 03:28:04;;;;;;;76.97;19.70;;;;;;;7.77;100.00;100185.91;5018978;28;20152;-84
2022/12/22 03:30:34;;;;;;;58.00;19.33;;;;;;;7.71;100.00;100181.69;5031624;28;20033;-84
2022/12/22 03:32:59;;;;;;;58.40;17.70;;;;;;;7.80;100.00;100195.38;5031736;28;20029;-84
2022/12/22 03:35:25;;;;;;;44.85;15.82;;;;;;;7.79;100.00;100189.31;5032515;28;20021;-85
2022/12/22 03:37:50;;;;;;;47.53;16.27;;;;;;;7.73;100.00;100187.72;5029978;28;20108;-85
2022/12/22 03:40:16;;;;;;;39.65;15.63;;;;;;;7.75;100.00;100185.09;5031962;28;20057;-85
2022/12/22 03:48:08;;;;;;;;;;;;;;;7.74;100.00;100181.63;5036295;28;20451;-85
2022/12/22 03:50:34;;;;;;;56.40;17.43;;;;;;;7.71;100.00;100176.50;5035088;28;19913;-85
2022/12/22 03:52:59;;;;;;;169.63;19.30;;;;;;;7.68;100.00;100181.78;5034365;28;20296;-85
2022/12/22 03:55:25;;;;;;;56.97;20.13;;;;;;;7.66;100.00;100183.56;5035545;28;20033;-85
2022/12/22 03:57:50;;;;;;;52.83;18.33;;;;;;;7.67;100.00;100184.41;5034875;28;20038;-85
2022/12/22 04:00:16;;;;;;;58.25;18.50;;;;;;;7.62;100.00;100170.66;5035640;28;20033;-85
2022/12/22 04:02:41;;;;;;;59.22;19.13;;;;;;;7.63;100.00;100172.41;5033632;28;20405;-85
2022/12/22 04:05:07;;;;;;;129.18;21.85;;;;;;;7.62;100.00;100160.28;5030771;28;20029;-85
2022/12/22 04:07:32;;;;;;;234.55;22.50;;;;;;;7.60;100.00;100160.34;5024265;28;20188;-85
2022/12/22 04:12:53;;;;;;;240.75;21.50;;;;;;;7.50;100.00;100159.69;5032562;28;20128;-85
2022/12/22 04:15:26;;;;;;;147.27;21.23;;;;;;;7.58;100.00;100163.84;5033766;28;20041;-84
2022/12/22 04:17:51;;;;;;;75.82;18.65;;;;;;;7.55;100.00;100156.97;5034588;28;20063;-84
2022/12/22 04:20:17;;;;;;;97.85;19.40;;;;;;;7.58;100.00;100154.31;5035231;28;20026;-85
2022/12/22 04:22:43;;;;;;;126.60;19.98;;;;;;;7.53;100.00;100148.41;5033586;28;20507;-86
2022/12/22 04:25:08;;;;;;;94.85;15.45;;;;;;;7.51;100.00;100148.41;5033477;28;20037;-85
2022/12/22 04:27:34;;;;;;;228.35;18.92;;;;;;;7.63;100.00;100173.25;5029158;28;20045;-84
2022/12/22 04:29:59;;;;;;;203.05;18.30;;;;;;;7.65;100.00;100171.47;5034321;28;20346;-85
2022/12/22 04:32:24;;;;;;;70.05;14.02;;;;;;;7.59;100.00;100169.03;5033542;28;20025;-84
2022/12/22 04:34:50;;;;;;;70.35;15.52;;;;;;;7.65;100.00;100170.59;5033500;28;20509;-85
2022/12/22 04:37:15;;;;;;;158.25;17.10;;;;;;;7.67;100.00;100169.69;5035202;28;20033;-85
2022/12/22 04:39:40;;;;;;;183.00;18.73;;;;;;;7.68;100.00;100175.72;5034021;28;20030;-85
2022/12/22 04:42:05;;;;;;;138.45;19.20;;;;;;;7.68;100.00;100180.91;5033941;28;20469;-84
2022/12/22 04:44:31;;;;;;;116.57;18.45;;;;;;;7.65;100.00;100176.66;5033222;28;20057;-85
2022/12/22 04:46:56;;;;;;;92.57;17.75;;;;;;;7.68;100.00;100179.19;5033700;28;20029;-85
2022/12/22 04:49:21;;;;;;;78.30;16.38;;;;;;;7.70;100.00;100184.34;5034471;28;20504;-85
2022/12/22 04:51:47;;;;;;;58.13;16.13;;;;;;;7.70;100.00;100174.81;5034121;28;20024;-85
2022/12/22 04:54:12;;;;;;;56.30;15.80;;;;;;;7.72;100.00;100175.63;5031568;28;20077;-85
2022/12/22 04:56:37;;;;;;;85.47;14.82;;;;;;;7.70;100.00;100177.41;5034510;28;20404;-85
2022/12/22 04:59:02;;;;;;;46.70;14.50;;;;;;;7.61;100.00;100163.78;5034541;28;20126;-85
2022/12/22 05:01:28;;;;;;;42.67;14.02;;;;;;;7.68;100.00;100171.41;5032602;28;20124;-85
2022/12/22 05:03:53;;;;;;;47.85;13.35;;;;;;;7.62;100.00;100162.88;5031302;28;20441;-85
2022/12/22 05:06:18;;;;;;;39.03;13.90;;;;;;;7.66;100.00;100168.00;5033527;28;20481;-86
2022/12/22 05:08:44;;;;;;;36.38;12.73;;;;;;;7.64;100.00;100177.53;5032419;28;20029;-85
2022/12/22 05:11:09;;;;;;;39.90;14.70;;;;;;;7.62;100.00;100176.75;5034485;28;20036;-84
2022/12/22 05:13:35;;;;;;;54.97;15.27;;;;;;;7.61;100.00;100168.97;5033213;28;20040;-85
2022/12/22 05:16:14;;;;;;;224.57;21.33;;;;;;;7.59;100.00;100169.03;5033438;28;20048;-85
2022/12/22 05:18:42;;;;;;;121.13;17.33;;;;;;;7.55;100.00;100167.34;5033898;28;20033;-85
2022/12/22 05:21:10;;;;;;;69.15;16.35;;;;;;;7.54;100.00;100175.19;5031231;28;20017;-86
2022/12/22 05:23:35;;;;;;;131.07;18.63;;;;;;;7.49;100.00;100175.28;5032932;28;20032;-85
2022/12/22 05:26:01;;;;;;;232.23;21.20;;;;;;;7.43;100.00;100178.00;5033701;28;20037;-85
2022/12/22 05:28:26;;;;;;;292.80;21.38;;;;;;;7.37;100.00;100179.00;5032056;28;20060;-85
2022/12/22 05:30:52;;;;;;;158.00;16.48;;;;;;;7.31;100.00;100179.13;5033215;28;20018;-85
2022/12/22 05:33:18;;;;;;;71.60;15.98;;;;;;;7.38;100.00;100187.63;5031549;28;20037;-85
2022/12/22 05:35:43;;;;;;;64.95;15.57;;;;;;;7.41;100.00;100191.00;5032009;28;20029;-85
2022/12/22 05:38:08;;;;;;;68.63;15.27;;;;;;;7.44;100.00;100196.13;5033665;28;20033;-86
2022/12/22 05:40:34;;;;;;;61.42;15.52;;;;;;;7.45;100.00;100190.03;5033860;28;20038;-86
2022/12/22 05:42:59;;;;;;;66.10;15.38;;;;;;;7.49;100.00;100191.72;5031618;28;20033;-85
2022/12/22 05:45:24;;;;;;;59.78;16.08;;;;;;;7.53;100.00;100205.47;5032374;28;20052;-84
2022/12/22 05:47:51;;;;;;;65.75;16.10;;;;;;;7.47;100.00;100190.03;5019324;28;20057;-85
2022/12/22 05:50:19;;;;;;;69.25;16.65;;;;;;;7.59;100.00;100202.75;5032866;28;20464;-86
2022/12/22 05:52:45;;;;;;;79.00;17.17;;;;;;;7.63;100.00;100203.53;5032752;28;20507;-85
2022/12/22 05:55:11;;;;;;;94.28;17.40;;;;;;;7.61;100.00;100206.13;5033239;28;20029;-85
2022/12/22 05:57:37;;;;;;;91.80;18.15;;;;;;;7.69;100.00;100219.81;5031288;28;20029;-85
2022/12/22 06:00:09;;;;;;;82.68;18.10;;;;;;;7.64;100.00;100213.00;5031099;28;20067;-85
2022/12/22 06:02:34;;;;;;;73.32;17.65;;;;;;;7.64;100.00;100219.03;5032737;28;20136;-85
2022/12/22 06:04:59;;;;;;;83.32;18.38;;;;;;;7.69;100.00;100240.56;5028161;28;20902;-85
2022/12/22 06:07:24;;;;;;;76.85;17.30;;;;;;;7.76;100.00;100248.22;5032893;28;20053;-86
2022/12/22 06:09:50;;;;;;;79.80;18.17;;;;;;;7.75;100.00;100249.97;5019312;28;20042;-86
2022/12/22 06:12:15;;;;;;;85.47;19.50;;;;;;;7.76;100.00;100253.41;5032425;28;20029;-85
2022/12/22 06:14:40;;;;;;;90.10;18.15;;;;;;;7.70;100.00;100244.00;5030808;28;20026;-85
2022/12/22 06:17:06;;;;;;;94.60;19.20;;;;;;;7.70;100.00;100251.78;5020364;28;20026;-85
2022/12/22 06:19:31;;;;;;;109.60;21.42;;;;;;;7.71;100.00;100253.50;5012831;28;20085;-86
2022/12/22 06:21:56;;;;;;;85.68;19.65;;;;;;;7.73;100.00;100265.56;5028307;28;20030;-85
2022/12/22 06:24:21;;;;;;;102.55;20.15;;;;;;;7.77;100.00;100279.31;5031891;28;20037;-85
2022/12/22 06:26:47;;;;;;;89.40;20.95;;;;;;;7.77;100.00;100279.31;5031873;28;20076;-86
2022/12/22 06:29:12;;;;;;;87.32;20.73;;;;;;;7.75;100.00;100283.72;5032656;28;20029;-86
2022/12/22 06:31:37;;;;;;;82.72;20.65;;;;;;;7.64;100.00;100267.50;5030443;28;20021;-85
2022/12/22 06:34:03;;;;;;;87.00;22.27;;;;;;;7.77;100.00;100281.06;5031183;28;20053;-87
2022/12/22 06:36:28;;;;;;;97.28;26.30;;;;;;;7.77;100.00;100281.06;5033000;28;20112;-86
2022/12/22 06:38:53;;;;;;;117.28;26.80;;;;;;;7.77;100.00;100288.84;5031994;28;20025;-85
2022/12/22 06:43:07;;;;;;;116.10;28.45;;;;;;;7.83;100.00;100299.09;5032108;28;20537;-86
2022/12/22 06:44:04;;;;;;;139.20;30.70;;;;;;;7.83;100.00;100307.75;5019965;28;20041;-86
2022/12/22 06:46:29;;;;;;;142.57;32.05;;;;;;;7.84;100.00;100306.00;5030920;28;20480;-85
2022/12/22 06:48:54;;;;;;;142.82;32.05;;;;;;;7.84;100.00;100313.78;5032215;28;20477;-85
2022/12/22 06:51:20;;;;;;;159.52;32.13;;;;;;;7.84;100.00;100314.63;5032405;28;20080;-85
2022/12/22 06:53:45;;;;;;;180.07;34.40;;;;;;;7.86;100.00;100328.44;5030691;28;20025;-85
2022/12/22 06:56:10;;;;;;;156.70;33.20;;;;;;;7.87;100.00;100322.34;5031588;28;20493;-85
2022/12/22 06:58:35;;;;;;;163.00;32.75;;;;;;;7.87;100.00;100321.50;5031218;28;20029;-86
2022/12/22 07:01:03;;;;;;;168.55;33.72;;;;;;;7.81;100.00;100322.47;5030946;28;20064;-86
2022/12/22 07:03:29;;;;;;;177.85;33.90;;;;;;;7.77;100.00;100318.25;5031356;28;20025;-85
2022/12/22 07:05:54;;;;;;;189.38;33.47;;;;;;;7.86;100.00;100348.34;5031975;28;20037;-86
2022/12/22 07:08:22;;;;;;;160.50;33.42;;;;;;;7.86;100.00;100351.81;5031580;28;20520;-85
2022/12/22 07:10:56;;;;;;;165.25;33.45;;;;;;;7.85;100.00;100360.47;5030960;28;20436;-86
2022/12/22 07:13:22;;;;;;;169.88;33.40;;;;;;;7.77;100.00;100357.16;5029481;28;20034;-85
2022/12/22 07:15:48;;;;;;;153.88;31.52;;;;;;;7.83;100.00;100369.19;5034462;28;20021;-85
2022/12/22 07:18:14;;;;;;;147.90;32.17;;;;;;;7.80;100.00;100379.63;5036729;28;20087;-86
2022/12/22 07:20:39;;;;;;;157.18;33.80;;;;;;;7.76;100.00;100375.38;5035924;28;20064;-87
2022/12/22 07:23:04;;;;;;;148.90;32.40;;;;;;;7.69;100.00;100367.69;5035642;28;20026;-86
2022/12/22 07:25:29;;;;;;;177.25;33.63;;;;;;;7.59;100.00;100354.94;5032619;28;20052;-85
2022/12/22 07:27:55;;;;;;;142.70;32.20;;;;;;;7.57;100.00;100354.97;5034829;28;20493;-85
2022/12/22 07:30:20;;;;;;;147.80;33.17;;;;;;;7.60;100.00;100375.66;5036304;28;20457;-85
2022/12/22 07:32:48;;;;;;;151.68;33.50;;;;;;;7.53;100.00;100368.03;5033468;28;20057;-86
2022/12/22 07:35:14;;;;;;;150.50;33.42;;;;;;;7.44;100.00;100374.22;5030379;28;20044;-85
2022/12/22 07:37:39;;;;;;;162.88;34.00;;;;;;;7.37;100.00;100372.63;5035784;28;20381;-86
2022/12/22 07:40:05;;;;;;;171.73;34.17;;;;;;;7.30;100.00;100376.22;5033295;28;20127;-86
2022/12/22 07:42:45;;;;;;;158.00;33.53;;;;;;;7.26;100.00;100373.69;5032526;28;20014;-86
2022/12/22 07:45:13;;;;;;;156.38;34.83;;;;;;;7.32;100.00;100387.41;5031258;28;20037;-84
2022/12/22 07:47:39;;;;;;;173.90;36.05;;;;;;;7.34;100.00;100402.06;5032616;28;20148;-85
2022/12/22 07:55:17;;;;;;;178.10;38.03;;;;;;;7.47;100.00;100410.47;5013323;28;20073;-86
2022/12/22 07:57:42;;;;;;;195.85;38.67;;;;;;;7.47;100.00;100426.03;5013532;28;20476;-86
2022/12/22 08:00:08;;;;;;;185.38;38.78;;;;;;;7.38;100.00;100423.59;5015332;28;20469;-86
2022/12/22 08:02:34;;;;;;;178.43;39.60;;;;;;;7.47;100.00;100449.38;5014710;28;20467;-86
2022/12/22 08:04:59;;;;;;;190.90;42.05;;;;;;;7.46;100.00;100463.25;5014680;28;20022;-86
2022/12/22 08:07:24;;;;;;;201.48;41.35;;;;;;;7.46;100.00;100455.47;5011821;28;20559;-86
2022/12/22 08:09:49;;;;;;;193.25;40.97;;;;;;;7.47;100.00;100463.22;5013525;28;20030;-81
2022/12/22 08:12:15;;;;;;;210.70;42.45;;;;;;;7.48;100.00;100474.44;5014852;28;20014;-85
2022/12/22 08:14:44;;;;;;;223.07;41.85;;;;;;;7.46;100.00;100474.47;5015415;28;20469;-86
2022/12/22 08:17:10;;;;;;;211.38;40.75;;;;;;;7.36;100.00;100462.53;5013367;28;20469;-85
2022/12/22 08:19:35;;;;;;;199.13;42.08;;;;;;;7.51;100.00;100484.75;5013818;28;20034;-86
2022/12/22 08:22:01;;;;;;;218.52;42.47;;;;;;;7.40;100.00;100461.59;5014981;28;20070;-86
2022/12/22 08:24:26;;;;;;;215.68;42.88;;;;;;;7.53;100.00;100483.00;5011941;28;20075;-85
2022/12/22 08:32:03;;;;;;;194.68;42.15;;;;;;;7.45;100.00;100487.44;5066828;23;20053;-86
2022/12/22 08:34:28;;;;;;;196.98;41.35;;;;;;;7.42;100.00;100505.66;5053868;28;20033;-84
2022/12/22 08:36:57;;;;;;;165.55;39.35;;;;;;;7.35;100.00;100507.50;5053301;28;20029;-84
2022/12/22 08:39:25;;;;;;;159.32;38.28;;;;;;;7.30;100.00;100518.84;5053246;28;20063;-84
2022/12/22 08:41:51;;;;;;;164.88;39.00;;;;;;;7.23;100.00;100528.44;5053151;28;20165;-86
2022/12/22 08:44:25;;;;;;;155.25;38.25;;;;;;;7.32;100.00;100540.41;5053122;28;20036;-86
2022/12/22 08:46:51;;;;;;;172.43;38.55;;;;;;;7.36;100.00;100549.88;5053510;28;20106;-85
2022/12/22 08:49:17;;;;;;;167.88;38.42;;;;;;;7.24;100.00;100554.34;5054482;28;20039;-85
2022/12/22 08:51:42;;;;;;;171.60;40.63;;;;;;;7.31;100.00;100575.84;5053561;28;20088;-86
2022/12/22 08:56:44;;;;;;;191.57;42.10;;;;;;;7.31;100.00;100572.41;5196390;23;20049;-86
2022/12/22 08:59:10;;;;;;;205.77;43.30;;;;;;;7.33;100.00;100574.09;5032469;28;20417;-87
2022/12/22 09:01:37;;;;;;;176.57;42.22;;;;;;;7.22;100.00;100571.63;5032942;28;20029;-88
2022/12/22 09:04:04;;;;;;;167.65;38.10;;;;;;;7.04;100.00;100567.56;5034060;28;20025;-87
2022/12/22 09:06:29;;;;;;;173.35;39.65;;;;;;;6.94;100.00;100580.69;5033735;28;20026;-86
2022/12/22 09:08:57;;;;;;;157.95;37.17;;;;;;;6.82;100.00;100575.66;5031799;28;20083;-87
2022/12/22 09:11:23;;;;;;;161.18;37.85;;;;;;;6.87;100.00;100592.00;5030178;28;20045;-86
2022/12/22 09:13:51;;;;;;;150.90;35.33;;;;;;;6.79;100.00;100592.94;5033398;28;20025;-86
2022/12/22 09:16:18;;;;;;;167.02;37.25;;;;;;;6.65;100.00;100574.13;5034135;28;20033;-87
2022/12/22 09:18:43;;;;;;;162.90;38.45;;;;;;;6.48;100.00;100548.41;5033897;28;20021;-87
2022/12/22 09:21:08;;;;;;;162.93;39.38;;;;;;;6.50;100.00;100561.31;5033185;28;20471;-86
2022/12/22 09:23:34;;;;;;;151.93;36.85;;;;;;;6.62;100.00;100592.28;5033193;28;20045;-87
2022/12/22 09:25:59;;;;;;;175.95;38.33;;;;;;;6.65;100.00;100604.34;5032728;28;20028;-85
2022/12/22 09:28:24;;;;;;;175.50;39.72;;;;;;;6.76;100.00;100599.88;5033158;28;20040;-86
2022/12/22 09:30:51;;;;;;;189.75;42.72;;;;;;;6.71;100.00;100589.59;5028453;28;20041;-86
2022/12/22 09:33:16;;;;;;;200.13;43.88;;;;;;;6.88;100.00;100602.34;5033133;28;20033;-86
2022/12/22 09:35:42;;;;;;;200.25;45.53;;;;;;;6.88;100.00;100581.59;5026305;28;20025;-88
2022/12/22 09:38:08;;;;;;;208.45;48.28;;;;;;;6.97;100.00;100609.16;5030012;28;20030;-87
2022/12/22 09:40:33;;;;;;;208.60;50.20;;;;;;;7.00;100.00;100614.31;5032650;28;20022;-88
2022/12/22 09:42:59;;;;;;;209.52;50.65;;;;;;;6.99;100.00;100607.38;5032563;28;20033;-87
2022/12/22 09:45:24;;;;;;;208.50;51.15;;;;;;;7.00;100.00;100627.25;5032523;28;20108;-88
2022/12/22 09:47:52;;;;;;;185.70;49.63;;;;;;;6.96;100.00;100631.59;5032046;28;20029;-87
2022/12/22 09:50:25;;;;;;;205.68;50.92;;;;;;;6.95;100.00;100621.25;5032175;28;20128;-88
2022/12/22 09:52:56;;;;;;;198.45;49.70;;;;;;;6.99;100.00;100635.88;5033412;28;20025;-88
2022/12/22 09:55:38;;;;;;;192.82;48.53;;;;;;;6.87;100.00;100623.09;5029448;28;20072;-88
2022/12/22 09:58:15;;;;;;;199.73;48.25;;;;;;;6.95;100.00;100637.66;5027751;28;20477;-87
2022/12/22 10:00:41;;;;;;;187.10;46.75;;;;;;;7.01;100.00;100636.75;5031028;28;20033;-88
2022/12/22 10:03:28;;;;;;;203.55;48.53;;;;;;;7.10;100.00;100647.00;5031219;28;20500;-88
2022/12/22 10:06:11;;;;;;;177.95;45.10;;;;;;;7.21;100.00;100652.91;5030589;28;20045;-88
2022/12/22 10:08:39;;;;;;;181.55;45.85;;;;;;;7.31;100.00;100645.00;5029335;28;20040;-89
2022/12/22 10:11:05;;;;;;;178.35;44.58;;;;;;;7.55;100.00;100655.03;5032256;28;20029;-88
2022/12/22 10:13:31;;;;;;;162.68;41.58;;;;;;;7.49;100.00;100653.41;5032280;28;20034;-86
2022/12/22 10:15:57;;;;;;;157.48;39.72;;;;;;;7.57;100.00;100663.66;5029371;28;20033;-89
2022/12/22 10:18:38;;;;;;;155.27;37.75;;;;;;;7.33;100.00;100592.25;5044657;23;20045;-87
2022/12/22 10:21:06;;;;;;;136.38;38.75;;;;;;;7.78;100.00;100659.03;5031715;28;20504;-87
2022/12/22 10:23:37;;;;;;;116.53;30.67;;;;;;;7.63;100.00;100663.59;5032601;28;20028;-89
2022/12/22 10:26:15;;;;;;;102.47;29.20;;;;;;;7.43;100.00;100658.66;5031010;28;20074;-89
2022/12/22 10:28:45;;;;;;;103.38;28.63;;;;;;;7.39;100.00;100656.13;5030951;28;20034;-88
2022/12/22 10:31:21;;;;;;;98.45;28.85;;;;;;;7.44;100.00;100655.19;5031727;28;20159;-88
2022/12/22 10:33:49;;;;;;;89.05;26.48;;;;;;;7.46;100.00;100665.56;5032215;28;20025;-90
2022/12/22 10:36:25;;;;;;;79.15;25.67;;;;;;;7.41;100.00;100639.66;5031418;28;20033;-88
2022/12/22 10:39:04;;;;;;;80.72;25.50;;;;;;;7.60;100.00;100668.81;5030753;28;20056;-91
2022/12/22 10:41:38;;;;;;;76.22;25.52;;;;;;;7.53;100.00;100662.00;5030702;28;20527;-83
2022/12/22 10:44:20;;;;;;;81.88;24.55;;;;;;;7.57;100.00;100674.03;5024298;28;20059;-86
2022/12/22 10:46:53;;;;;;;76.50;24.00;;;;;;;7.55;100.00;100667.16;5031551;28;20469;-84
2022/12/22 10:49:28;;;;;;;70.78;23.48;;;;;;;7.47;100.00;100665.53;5031492;28;20163;-81
2022/12/22 10:52:12;;;;;;;62.95;22.60;;;;;;;7.37;100.00;100663.09;5029405;28;20029;-90
2022/12/22 10:54:41;;;;;;;67.00;23.08;;;;;;;7.44;100.00;100667.31;5032558;28;20033;-88
2022/12/22 10:57:12;;;;;;;67.28;21.80;;;;;;;7.63;100.00;100681.75;5030008;28;20064;-87
2022/12/22 11:00:09;;;;;;;52.80;21.38;;;;;;;7.61;100.00;100683.50;5031473;28;20030;-91
2022/12/22 11:02:37;;;;;;;48.95;18.42;;;;;;;7.56;100.00;100676.66;5020989;28;20033;-88
2022/12/22 11:05:02;;;;;;;52.97;20.85;;;;;;;7.56;100.00;100690.50;5030526;28;20042;-86
2022/12/22 11:07:31;;;;;;;54.05;20.05;;;;;;;7.51;100.00;100692.28;5029859;28;20040;-86
2022/12/22 11:09:56;;;;;;;53.20;19.73;;;;;;;7.45;100.00;100697.53;5032201;28;20029;-87
2022/12/22 11:12:30;;;;;;;49.42;21.55;;;;;;;7.33;100.00;100693.38;5032436;28;20029;-87
2022/12/22 11:14:59;;;;;;;57.83;22.80;;;;;;;7.22;100.00;100701.28;5031696;28;20033;-87
2022/12/22 11:17:30;;;;;;;55.95;24.92;;;;;;;7.21;100.00;100694.38;5018920;28;20089;-87
2022/12/22 11:20:23;;;;;;;59.30;26.08;;;;;;;7.16;100.00;100679.75;5030891;28;20353;-87
2022/12/22 11:23:15;;;;;;;56.00;24.83;;;;;;;7.19;100.00;100692.69;5037989;23;20053;-87
2022/12/22 11:25:55;;;;;;;65.20;26.70;;;;;;;7.23;100.00;100690.06;5027447;28;20473;-87
2022/12/22 11:28:45;;;;;;;64.65;28.80;;;;;;;7.28;100.00;100690.84;5011861;28;20096;-87
2022/12/22 11:31:14;;;;;;;62.47;28.20;;;;;;;7.32;100.00;100707.22;5004317;28;20018;-87
2022/12/22 11:34:08;;;;;;;66.45;27.58;;;;;;;7.34;100.00;100699.44;5022081;28;20460;-87
2022/12/22 11:36:53;;;;;;;66.20;27.85;;;;;;;7.45;100.00;100702.72;5032333;28;20025;-87
2022/12/22 11:39:33;;;;;;;72.80;30.92;;;;;;;7.58;100.00;100706.03;5018119;28;20474;-87
2022/12/22 11:42:24;;;;;;;67.70;32.05;;;;;;;7.63;100.00;100705.09;5029040;28;20049;-87
2022/12/22 11:45:08;;;;;;;56.10;28.10;;;;;;;7.55;100.00;100709.50;5029837;28;20029;-86
2022/12/22 11:47:39;;;;;;;;;;;;;;;7.55;100.00;100713.84;5009093;28;20042;-87
2022/12/22 11:50:22;;;;;;;59.28;26.70;;;;;;;7.48;100.00;100708.75;5030091;28;20307;-87
2022/12/22 11:53:00;;;;;;;53.90;27.02;;;;;;;7.45;100.00;100716.56;5031844;28;20033;-86
2022/12/22 11:55:48;;;;;;;51.83;26.40;;;;;;;7.52;100.00;100712.19;5000603;28;20039;-87
2022/12/22 11:58:45;;;;;;;60.17;27.02;;;;;;;7.55;100.00;100714.69;4967437;28;20038;-87
2022/12/22 12:01:35;;;;;;;59.13;25.55;;;;;;;7.59;100.00;100705.16;4981668;28;20045;-87
2022/12/22 12:04:15;;;;;;;52.55;23.33;;;;;;;7.57;100.00;100694.81;5010580;28;20038;-87
2022/12/22 12:06:43;;;;;;;44.38;21.92;;;;;;;7.53;100.00;100702.66;5015732;28;20088;-86
2022/12/22 12:09:32;;;;;;;37.38;20.20;;;;;;;7.37;100.00;100691.63;5022152;28;20052;-86
2022/12/22 12:12:25;;;;;;;42.40;21.05;;;;;;;7.42;100.00;100695.88;5022308;28;20113;-87
2022/12/22 12:15:23;;;;;;;43.30;21.10;;;;;;;7.48;100.00;100684.53;5017598;28;20088;-88
2022/12/22 12:18:20;;;;;;;40.03;19.88;;;;;;;7.55;100.00;100672.34;5011423;28;20029;-87
2022/12/22 12:20:57;;;;;;;38.75;19.58;;;;;;;7.62;100.00;100680.03;5028021;28;20117;-87
2022/12/22 12:23:53;;;;;;;36.78;19.05;;;;;;;7.63;100.00;100673.97;5022010;28;20045;-87
2022/12/22 12:26:26;;;;;;;33.30;18.35;;;;;;;7.61;100.00;100667.06;5010304;28;20029;-88
2022/12/22 12:29:24;;;;;;;36.10;18.17;;;;;;;7.65;100.00;100660.94;5013270;28;20041;-88
2022/12/22 12:32:01;;;;;;;36.00;17.85;;;;;;;7.67;100.00;100648.81;5018765;28;20033;-87
2022/12/22 12:34:32;;;;;;;30.85;17.48;;;;;;;7.71;100.00;100653.09;5017508;28;20030;-90
2022/12/22 12:37:02;;;;;;;38.67;18.10;;;;;;;7.70;100.00;100646.19;5021977;28;20032;-88
2022/12/22 12:39:40;;;;;;;35.15;17.20;;;;;;;7.81;100.00;100657.25;5019252;28;20382;-89
2022/12/22 12:42:14;;;;;;;29.55;17.05;;;;;;;7.89;100.00;100650.22;5025653;28;20033;-87
2022/12/22 12:44:40;;;;;;;34.47;17.45;;;;;;;7.89;100.00;100658.00;5023946;28;20056;-90
2022/12/22 12:47:23;;;;;;;35.55;18.80;;;;;;;7.83;100.00;100658.09;5033158;28;20469;-88
2022/12/22 12:50:26;;;;;;;37.55;19.42;;;;;;;7.74;100.00;100653.88;5028693;28;20026;-88
2022/12/22 12:52:51;;;;;;;39.78;20.63;;;;;;;7.75;100.00;100662.56;5027876;28;20060;-87
2022/12/22 12:55:19;;;;;;;39.42;19.98;;;;;;;7.73;100.00;100653.94;5028305;28;20054;-88
2022/12/22 12:57:46;;;;;;;44.50;21.00;;;;;;;7.77;100.00;100650.41;5014211;28;20030;-87
2022/12/22 13:00:31;;;;;;;42.03;22.90;;;;;;;7.85;100.00;100647.72;5023836;28;20107;-88
2022/12/22 13:02:57;;;;;;;40.70;21.75;;;;;;;7.89;100.00;100650.22;5009830;28;20393;-89
2022/12/22 13:05:49;;;;;;;41.22;21.83;;;;;;;7.90;100.00;100645.88;5011898;28;20060;-87
2022/12/22 13:08:25;;;;;;;38.78;21.88;;;;;;;7.76;100.00;100638.31;5027256;23;20033;-84
2022/12/22 13:10:53;;;;;;;39.38;22.23;;;;;;;7.83;100.00;100652.06;4999454;28;20033;-88
2022/12/22 13:13:21;;;;;;;42.60;22.60;;;;;;;7.79;100.00;100655.59;4990180;28;20080;-89
2022/12/22 13:15:49;;;;;;;41.10;21.63;;;;;;;7.72;100.00;100660.00;5001556;28;20033;-86
2022/12/22 13:18:23;;;;;;;42.95;22.10;;;;;;;7.67;100.00;100660.06;5001044;28;20034;-87
2022/12/22 13:21:01;;;;;;;37.90;20.60;;;;;;;7.61;100.00;100652.34;4986643;28;20473;-85
2022/12/22 13:23:29;;;;;;;31.17;18.95;;;;;;;7.52;100.00;100647.31;5014203;28;20504;-84
2022/12/22 13:25:58;;;;;;;33.25;19.23;;;;;;;7.41;100.00;100657.81;5014134;28;20021;-85
2022/12/22 13:28:25;;;;;;;31.15;16.95;;;;;;;7.37;100.00;100658.75;5001169;28;20052;-84
2022/12/22 13:31:05;;;;;;;25.05;15.63;;;;;;;7.36;100.00;100651.00;5011953;28;20026;-85
2022/12/22 13:33:36;;;;;;;27.13;14.98;;;;;;;7.43;100.00;100647.44;5002244;28;20026;-83
2022/12/22 13:36:03;;;;;;;24.63;13.98;;;;;;;7.41;100.00;100638.81;5002876;28;20113;-81
2022/12/22 13:38:30;;;;;;;26.10;14.50;;;;;;;7.44;100.00;100646.56;5006391;28;20092;-81
2022/12/22 13:40:58;;;;;;;27.50;13.23;;;;;;;7.43;100.00;100629.28;4993545;28;20378;-82
2022/12/22 13:43:26;;;;;;;22.10;13.77;;;;;;;7.40;100.00;100621.56;4984554;28;20081;-89
2022/12/22 13:45:54;;;;;;;25.30;13.27;;;;;;;7.48;100.00;100630.06;4992777;28;20100;-88
2022/12/22 13:48:37;;;;;;;21.60;13.25;;;;;;;7.49;100.00;100622.28;5007280;28;20033;-88
2022/12/22 13:53:41;;;;;;;24.08;13.55;;;;;;;7.49;100.00;100614.50;5287802;23;20045;-88
2022/12/22 13:56:20;;;;;;;23.45;14.43;;;;;;;7.43;100.00;100595.56;5028194;28;20114;-89
2022/12/22 13:58:50;;;;;;;25.65;15.23;;;;;;;7.54;100.00;100614.41;5027263;28;20465;-87
2022/12/22 14:01:18;;;;;;;27.13;14.63;;;;;;;7.13;100.00;100548.47;5258804;23;20045;-87
2022/12/22 14:04:02;;;;;;;25.90;14.93;;;;;;;7.31;100.00;100578.44;5050273;28;20032;-86
2022/12/22 14:07:08;;;;;;;26.67;16.00;;;;;;;7.03;100.00;100534.78;5052820;28;20032;-82
2022/12/22 14:09:33;;;;;;;27.20;15.75;;;;;;;7.47;100.00;100598.09;5048441;28;20033;-85
2022/12/22 14:12:17;;;;;;;21.02;14.20;;;;;;;7.43;100.00;100601.63;5052603;28;20029;-87
2022/12/22 14:14:45;;;;;;;27.30;14.15;;;;;;;7.35;100.00;100603.44;5052932;28;20025;-84
2022/12/22 14:17:35;;;;;;;23.80;14.60;;;;;;;7.34;100.00;100600.88;5052387;28;20008;-82
2022/12/22 14:20:16;;;;;;;21.17;14.18;;;;;;;7.30;100.00;100594.88;5045225;28;20045;-81
2022/12/22 14:22:53;;;;;;;25.65;13.40;;;;;;;7.23;100.00;100593.25;5040259;28;20033;-82
2022/12/22 14:25:23;;;;;;;21.05;13.27;;;;;;;7.17;100.00;100581.22;5052182;28;20025;-83
2022/12/22 14:27:56;;;;;;;23.23;13.75;;;;;;;7.19;100.00;100582.09;5052346;28;20170;-84
2022/12/22 14:30:44;;;;;;;22.88;13.80;;;;;;;7.16;100.00;100576.06;5051493;28;20033;-86
2022/12/22 14:33:27;;;;;;;20.70;13.93;;;;;;;7.14;100.00;100578.69;5052092;28;20031;-81
2022/12/22 14:36:25;;;;;;;21.33;13.90;;;;;;;7.14;100.00;100575.22;5038675;28;20109;-83
2022/12/22 14:38:58;;;;;;;24.48;14.70;;;;;;;7.13;100.00;100574.38;5051458;28;20029;-83
2022/12/22 14:41:40;;;;;;;25.67;14.07;;;;;;;7.11;100.00;100567.50;5052199;28;20021;-86
2022/12/22 14:44:21;;;;;;;23.38;13.90;;;;;;;7.10;100.00;100561.47;5051885;28;20040;-89
2022/12/22 14:47:10;;;;;;;23.83;13.98;;;;;;;7.12;100.00;100558.84;5050048;28;20033;-86
2022/12/22 14:49:42;;;;;;;27.67;15.00;;;;;;;7.11;100.00;100552.78;5052532;28;20033;-88
2022/12/22 14:52:17;;;;;;;27.48;14.88;;;;;;;7.07;100.00;100551.13;5053553;28;20021;-91
2022/12/22 14:54:47;;;;;;;27.67;14.95;;;;;;;7.12;100.00;100556.25;5049340;28;20022;-88
2022/12/22 14:57:22;;;;;;;28.45;14.77;;;;;;;7.13;100.00;100556.22;5053114;28;20092;-90
2022/12/22 15:00:08;;;;;;;31.70;16.63;;;;;;;7.08;100.00;100545.06;5051290;28;20074;-87
2022/12/22 15:02:39;;;;;;;26.20;15.23;;;;;;;7.12;100.00;100544.13;5105395;23;20396;-88
2022/12/22 15:05:22;;;;;;;30.85;15.32;;;;;;;7.14;100.00;100544.13;5048081;28;20048;-85
2022/12/22 15:07:51;;;;;;;26.83;15.70;;;;;;;7.13;100.00;100550.16;5050491;28;20052;-86
2022/12/22 15:10:17;;;;;;;29.90;16.48;;;;;;;7.11;100.00;100542.44;5051577;28;20311;-86
2022/12/22 15:12:44;;;;;;;31.00;16.45;;;;;;;7.13;100.00;100538.09;5049735;28;20017;-88
2022/12/22 15:15:18;;;;;;;29.63;16.23;;;;;;;7.14;100.00;100533.75;5052488;28;20029;-89